Time;durP1;ratioP1;P1;durP2;ratioP2;P2;SDS_P1;SDS_P2;PMS_P1;PMS_P2;Temp;Humidity;BMP_temperature;BMP_pressure;BME280_temperature;BME280_humidity;BME280_pressure;Samples;Min_cycle;Max_cycle;Signal;HPM_P1;HPM_P2
2024/01/19 00:00:53;;;;;;;0.50;0.50;;;;;;;;;;4961322;28;20070;-84
2024/01/19 00:03:19;;;;;;;0.50;0.50;;;;;;;;;;4960105;28;20121;-85
2024/01/19 00:05:44;;;;;;;0.40;0.40;;;;;;;;;;4960971;28;20035;-85
2024/01/19 00:08:10;;;;;;;0.50;0.50;;;;;;;;;;4963413;28;20037;-85
2024/01/19 00:10:36;;;;;;;0.50;0.50;;;;;;;;;;4979007;28;20046;-85
2024/01/19 00:13:02;;;;;;;0.65;0.65;;;;;;;;;;4959890;28;20039;-85
2024/01/19 00:15:28;;;;;;;0.43;0.43;;;;;;;;;;4962776;28;20061;-85
2024/01/19 00:17:54;;;;;;;0.45;0.45;;;;;;;;;;4960920;28;20044;-85
2024/01/19 00:20:20;;;;;;;0.50;0.50;;;;;;;;;;4961550;28;20074;-85
2024/01/19 00:22:46;;;;;;;0.50;0.50;;;;;;;;;;4958905;28;20046;-84
2024/01/19 00:25:12;;;;;;;0.50;0.50;;;;;;;;;;4955002;28;20066;-85
2024/01/19 00:27:38;;;;;;;0.50;0.50;;;;;;;;;;4955558;28;20078;-85
2024/01/19 00:30:04;;;;;;;0.50;0.50;;;;;;;;;;4964519;28;20554;-85
2024/01/19 00:32:30;;;;;;;0.50;0.50;;;;;;;;;;4972890;28;20077;-85
2024/01/19 00:34:56;;;;;;;0.40;0.40;;;;;;;;;;4955199;28;20074;-85
2024/01/19 00:37:22;;;;;;;0.50;0.50;;;;;;;;;;4955662;28;20057;-85
2024/01/19 00:39:48;;;;;;;0.50;0.50;;;;;;;;;;4971357;28;20116;-85
2024/01/19 00:42:14;;;;;;;0.50;0.50;;;;;;;;;;4954890;28;20047;-85
2024/01/19 00:44:40;;;;;;;0.50;0.50;;;;;;;;;;4956017;28;20042;-85
2024/01/19 00:47:06;;;;;;;0.50;0.50;;;;;;;;;;4955625;28;20053;-85
2024/01/19 00:49:32;;;;;;;0.40;0.40;;;;;;;;;;4955286;28;20101;-85
2024/01/19 00:51:58;;;;;;;0.50;0.50;;;;;;;;;;4954579;28;20049;-85
2024/01/19 00:54:24;;;;;;;0.40;0.40;;;;;;;;;;4958079;28;20575;-85
2024/01/19 00:56:50;;;;;;;0.50;0.50;;;;;;;;;;4957234;28;20038;-85
2024/01/19 00:59:16;;;;;;;0.50;0.50;;;;;;;;;;4955522;28;20101;-85
2024/01/19 01:01:44;;;;;;;0.50;0.50;;;;;;;;;;4955196;28;20045;-85
2024/01/19 01:04:10;;;;;;;0.50;0.50;;;;;;;;;;4954363;28;20085;-85
2024/01/19 01:06:36;;;;;;;0.50;0.50;;;;;;;;;;4954844;28;20039;-85
2024/01/19 01:09:02;;;;;;;0.50;0.50;;;;;;;;;;4968093;28;20497;-85
2024/01/19 01:11:28;;;;;;;0.50;0.50;;;;;;;;;;4974479;28;20034;-84
2024/01/19 01:13:55;;;;;;;0.60;0.60;;;;;;;;;;4961972;28;20409;-85
2024/01/19 01:16:21;;;;;;;0.50;0.50;;;;;;;;;;4955360;28;20038;-85
2024/01/19 01:18:47;;;;;;;0.50;0.50;;;;;;;;;;4955361;28;20039;-85
2024/01/19 01:21:13;;;;;;;0.50;0.50;;;;;;;;;;4954950;28;20098;-85
2024/01/19 01:23:39;;;;;;;0.50;0.50;;;;;;;;;;4970256;28;20034;-85
2024/01/19 01:26:05;;;;;;;0.50;0.50;;;;;;;;;;4971282;28;20409;-84
2024/01/19 01:28:31;;;;;;;0.50;0.50;;;;;;;;;;4971030;28;20133;-85
2024/01/19 01:30:57;;;;;;;0.40;0.40;;;;;;;;;;4954870;28;20050;-85
2024/01/19 01:33:23;;;;;;;0.50;0.50;;;;;;;;;;4954305;28;20049;-85
2024/01/19 01:35:49;;;;;;;0.50;0.50;;;;;;;;;;4954731;28;20106;-85
2024/01/19 01:38:15;;;;;;;0.60;0.60;;;;;;;;;;4955141;28;20494;-85
2024/01/19 01:40:41;;;;;;;0.43;0.43;;;;;;;;;;4954956;28;20043;-85
2024/01/19 01:43:07;;;;;;;0.50;0.50;;;;;;;;;;4953902;28;20054;-85
2024/01/19 01:45:33;;;;;;;0.50;0.50;;;;;;;;;;4971217;28;20046;-85
2024/01/19 01:48:00;;;;;;;0.40;0.40;;;;;;;;;;4954643;28;20042;-85
2024/01/19 01:50:26;;;;;;;0.50;0.50;;;;;;;;;;4954555;28;20105;-85
2024/01/19 01:52:53;;;;;;;0.60;0.60;;;;;;;;;;4955905;28;20038;-85
2024/01/19 01:55:19;;;;;;;0.50;0.50;;;;;;;;;;4961117;28;20050;-86
2024/01/19 01:57:47;;;;;;;0.50;0.50;;;;;;;;;;4958301;28;20484;-85
2024/01/19 02:00:14;;;;;;;0.57;0.57;;;;;;;;;;4974650;28;20539;-85
2024/01/19 02:02:40;;;;;;;0.50;0.50;;;;;;;;;;4957472;28;20050;-85
2024/01/19 02:05:06;;;;;;;0.60;0.60;;;;;;;;;;4958140;28;20047;-85
2024/01/19 02:07:32;;;;;;;0.50;0.50;;;;;;;;;;4958195;28;20046;-85
2024/01/19 02:09:59;;;;;;;0.60;0.60;;;;;;;;;;4958168;28;20518;-85
2024/01/19 02:12:25;;;;;;;0.50;0.50;;;;;;;;;;4957060;28;20043;-85
2024/01/19 02:14:51;;;;;;;0.60;0.60;;;;;;;;;;4958029;28;20390;-85
2024/01/19 02:17:17;;;;;;;0.50;0.50;;;;;;;;;;4957903;28;20046;-84
2024/01/19 02:19:43;;;;;;;0.60;0.60;;;;;;;;;;4957882;28;20046;-85
2024/01/19 02:22:09;;;;;;;0.50;0.50;;;;;;;;;;4956835;28;20047;-85
2024/01/19 02:24:36;;;;;;;0.50;0.50;;;;;;;;;;4958148;28;20490;-85
2024/01/19 02:27:03;;;;;;;0.50;0.50;;;;;;;;;;4957618;28;20046;-85
2024/01/19 02:29:29;;;;;;;0.60;0.60;;;;;;;;;;4969897;28;20425;-85
2024/01/19 02:31:55;;;;;;;0.50;0.50;;;;;;;;;;4976524;28;20039;-85
2024/01/19 02:34:22;;;;;;;0.50;0.50;;;;;;;;;;4957688;28;20047;-85
2024/01/19 02:36:48;;;;;;;0.60;0.60;;;;;;;;;;4973944;28;20098;-85
2024/01/19 02:39:15;;;;;;;0.50;0.50;;;;;;;;;;4957886;28;20051;-85
2024/01/19 02:41:41;;;;;;;0.50;0.50;;;;;;;;;;4957500;28;20043;-85
2024/01/19 02:44:07;;;;;;;0.60;0.60;;;;;;;;;;4956612;28;20059;-85
2024/01/19 02:46:33;;;;;;;0.50;0.50;;;;;;;;;;4957684;28;20126;-85
2024/01/19 02:48:59;;;;;;;0.60;0.60;;;;;;;;;;4957255;28;20053;-85
2024/01/19 02:51:25;;;;;;;0.60;0.60;;;;;;;;;;4973797;28;20039;-85
2024/01/19 02:53:51;;;;;;;0.50;0.50;;;;;;;;;;4956370;28;20076;-85
2024/01/19 02:56:17;;;;;;;0.40;0.40;;;;;;;;;;4957369;28;20134;-85
2024/01/19 02:58:43;;;;;;;0.60;0.60;;;;;;;;;;4957260;28;20472;-85
2024/01/19 03:01:09;;;;;;;0.50;0.50;;;;;;;;;;4957341;28;20051;-85
2024/01/19 03:03:35;;;;;;;0.50;0.50;;;;;;;;;;4956446;28;20046;-85
2024/01/19 03:06:01;;;;;;;0.50;0.50;;;;;;;;;;4957414;28;20050;-85
2024/01/19 03:08:27;;;;;;;0.60;0.60;;;;;;;;;;4957115;28;20129;-85
2024/01/19 03:10:55;;;;;;;0.50;0.50;;;;;;;;;;4957057;28;20509;-85
2024/01/19 03:13:21;;;;;;;0.50;0.50;;;;;;;;;;4955808;28;20042;-85
2024/01/19 03:15:47;;;;;;;0.50;0.50;;;;;;;;;;4956871;28;20123;-86
2024/01/19 03:18:13;;;;;;;0.50;0.50;;;;;;;;;;4956965;28;20031;-85
2024/01/19 03:20:39;;;;;;;0.50;0.50;;;;;;;;;;4956905;28;20043;-85
2024/01/19 03:23:05;;;;;;;0.50;0.50;;;;;;;;;;4972369;28;20051;-85
2024/01/19 03:25:31;;;;;;;0.50;0.50;;;;;;;;;;4956831;28;20489;-85
2024/01/19 03:27:57;;;;;;;0.60;0.60;;;;;;;;;;4956643;28;20089;-85
2024/01/19 03:30:23;;;;;;;0.50;0.50;;;;;;;;;;4956589;28;20410;-85
2024/01/19 03:32:49;;;;;;;0.50;0.50;;;;;;;;;;4960543;28;20058;-85
2024/01/19 03:35:17;;;;;;;0.50;0.50;;;;;;;;;;4956644;28;20034;-85
2024/01/19 03:37:43;;;;;;;0.50;0.50;;;;;;;;;;4956772;28;20042;-85
2024/01/19 03:40:09;;;;;;;0.45;0.45;;;;;;;;;;4956500;28;20520;-85
2024/01/19 03:42:35;;;;;;;0.50;0.50;;;;;;;;;;4955778;28;20047;-85
2024/01/19 03:45:02;;;;;;;0.50;0.50;;;;;;;;;;4956260;28;20050;-85
2024/01/19 03:47:28;;;;;;;0.50;0.50;;;;;;;;;;4972405;28;20051;-85
2024/01/19 03:49:54;;;;;;;0.50;0.50;;;;;;;;;;4956370;28;20039;-85
2024/01/19 03:52:20;;;;;;;0.50;0.50;;;;;;;;;;4955492;28;20030;-84
2024/01/19 03:54:46;;;;;;;0.60;0.60;;;;;;;;;;4956244;28;20126;-85
2024/01/19 03:57:12;;;;;;;0.60;0.60;;;;;;;;;;4960023;28;20110;-85
2024/01/19 03:59:38;;;;;;;0.50;0.50;;;;;;;;;;4956199;28;20050;-85
2024/01/19 04:02:05;;;;;;;0.50;0.50;;;;;;;;;;4955090;28;20105;-85
2024/01/19 04:04:32;;;;;;;0.50;0.50;;;;;;;;;;4942720;28;20042;-85
2024/01/19 04:06:58;;;;;;;0.50;0.50;;;;;;;;;;4975304;28;20132;-85
2024/01/19 04:09:24;;;;;;;0.60;0.60;;;;;;;;;;4975245;28;20133;-85
2024/01/19 04:11:49;;;;;;;0.52;0.52;;;;;;;;;;4975223;28;20064;-85
2024/01/19 04:14:16;;;;;;;0.50;0.50;;;;;;;;;;4956629;28;20043;-85
2024/01/19 04:16:41;;;;;;;0.50;0.50;;;;;;;;;;4955565;28;20125;-85
2024/01/19 04:19:08;;;;;;;0.50;0.50;;;;;;;;;;4955521;28;20600;-86
2024/01/19 04:21:33;;;;;;;0.47;0.47;;;;;;;;;;4955724;28;20043;-85
2024/01/19 04:24:00;;;;;;;0.60;0.60;;;;;;;;;;4970967;28;20519;-85
2024/01/19 04:26:27;;;;;;;0.50;0.50;;;;;;;;;;4955695;28;20042;-85
2024/01/19 04:28:54;;;;;;;0.50;0.50;;;;;;;;;;4955663;28;20039;-85
2024/01/19 04:31:20;;;;;;;0.50;0.50;;;;;;;;;;4971551;28;20043;-85
2024/01/19 04:33:46;;;;;;;0.50;0.50;;;;;;;;;;4954586;28;20544;-85
2024/01/19 04:36:12;;;;;;;0.50;0.50;;;;;;;;;;4955540;28;20041;-85
2024/01/19 04:38:38;;;;;;;0.60;0.60;;;;;;;;;;4971602;28;20422;-84
2024/01/19 04:41:04;;;;;;;0.50;0.50;;;;;;;;;;4955437;28;20457;-85
2024/01/19 04:43:31;;;;;;;0.50;0.50;;;;;;;;;;4954398;28;20047;-85
2024/01/19 04:45:57;;;;;;;0.50;0.50;;;;;;;;;;4955426;28;20043;-85
2024/01/19 04:48:23;;;;;;;0.50;0.50;;;;;;;;;;4955336;28;20458;-85
2024/01/19 04:50:49;;;;;;;0.57;0.57;;;;;;;;;;4955315;28;20190;-85
2024/01/19 04:53:15;;;;;;;0.60;0.60;;;;;;;;;;4954378;28;20504;-84
2024/01/19 04:55:41;;;;;;;0.50;0.50;;;;;;;;;;4955541;28;20599;-85
2024/01/19 04:58:07;;;;;;;0.50;0.50;;;;;;;;;;4955455;28;20043;-85
2024/01/19 05:00:33;;;;;;;0.50;0.50;;;;;;;;;;4955391;28;20101;-85
2024/01/19 05:03:00;;;;;;;0.50;0.50;;;;;;;;;;4941335;28;20050;-85
2024/01/19 05:05:26;;;;;;;0.50;0.50;;;;;;;;;;4946160;28;20045;-85
2024/01/19 05:07:53;;;;;;;0.50;0.50;;;;;;;;;;4945963;28;20133;-85
2024/01/19 05:10:19;;;;;;;0.40;0.40;;;;;;;;;;4945022;28;20101;-85
2024/01/19 05:12:45;;;;;;;0.50;0.50;;;;;;;;;;4945120;28;20409;-85
2024/01/19 05:15:11;;;;;;;0.60;0.60;;;;;;;;;;4942725;29;20039;-85
2024/01/19 05:17:37;;;;;;;0.40;0.40;;;;;;;;;;4950533;28;20043;-85
2024/01/19 05:20:03;;;;;;;0.50;0.50;;;;;;;;;;4959107;28;20070;-85
2024/01/19 05:22:29;;;;;;;0.50;0.50;;;;;;;;;;4945755;28;20046;-85
2024/01/19 05:24:55;;;;;;;0.40;0.40;;;;;;;;;;4943969;28;20054;-85
2024/01/19 05:27:21;;;;;;;0.50;0.50;;;;;;;;;;4945937;28;20038;-85
2024/01/19 05:29:47;;;;;;;0.50;0.50;;;;;;;;;;4947118;28;20099;-85
2024/01/19 05:32:13;;;;;;;0.55;0.55;;;;;;;;;;4947577;28;20046;-85
2024/01/19 05:34:39;;;;;;;0.55;0.55;;;;;;;;;;4949827;28;20036;-85
2024/01/19 05:37:05;;;;;;;0.50;0.50;;;;;;;;;;4949098;28;20031;-85
2024/01/19 05:39:31;;;;;;;0.50;0.50;;;;;;;;;;4946525;28;20072;-85
2024/01/19 05:41:57;;;;;;;0.50;0.50;;;;;;;;;;4946058;28;20051;-85
2024/01/19 05:44:23;;;;;;;0.52;0.52;;;;;;;;;;4949078;28;20035;-84
2024/01/19 05:46:49;;;;;;;0.60;0.60;;;;;;;;;;4948533;28;20045;-85
2024/01/19 05:49:15;;;;;;;0.57;0.57;;;;;;;;;;4962432;28;20130;-84
2024/01/19 05:51:43;;;;;;;0.47;0.47;;;;;;;;;;4949251;28;20042;-85
2024/01/19 05:54:09;;;;;;;0.50;0.50;;;;;;;;;;4947271;29;20067;-85
2024/01/19 05:56:35;;;;;;;0.50;0.50;;;;;;;;;;4948976;28;20162;-85
2024/01/19 05:59:01;;;;;;;0.50;0.50;;;;;;;;;;4962248;28;20600;-85
2024/01/19 06:01:27;;;;;;;0.50;0.50;;;;;;;;;;4951837;28;20035;-85
2024/01/19 06:03:53;;;;;;;0.57;0.57;;;;;;;;;;4948381;28;20054;-85
2024/01/19 06:06:19;;;;;;;0.60;0.60;;;;;;;;;;4947168;28;20445;-85
2024/01/19 06:08:45;;;;;;;0.60;0.60;;;;;;;;;;4963859;28;20042;-85
2024/01/19 06:11:11;;;;;;;0.50;0.50;;;;;;;;;;4945792;28;20039;-85
2024/01/19 06:13:40;;;;;;;0.50;0.50;;;;;;;;;;4947857;28;20434;-85
2024/01/19 06:16:06;;;;;;;0.50;0.50;;;;;;;;;;4961557;28;20066;-85
2024/01/19 06:18:34;;;;;;;0.50;0.50;;;;;;;;;;4948610;28;20584;-85
2024/01/19 06:21:00;;;;;;;0.50;0.50;;;;;;;;;;4951126;28;20054;-85
2024/01/19 06:23:27;;;;;;;0.50;0.50;;;;;;;;;;4945726;28;20045;-85
2024/01/19 06:25:53;;;;;;;0.50;0.50;;;;;;;;;;4948988;28;20062;-85
2024/01/19 06:28:19;;;;;;;0.50;0.50;;;;;;;;;;4948360;28;20541;-85
2024/01/19 06:30:45;;;;;;;0.50;0.50;;;;;;;;;;4946903;28;20126;-85
2024/01/19 06:33:11;;;;;;;0.50;0.50;;;;;;;;;;4954499;28;20038;-85
2024/01/19 06:35:37;;;;;;;0.52;0.52;;;;;;;;;;4955807;28;20030;-85
2024/01/19 06:38:04;;;;;;;0.50;0.50;;;;;;;;;;4951990;28;20041;-85
2024/01/19 06:40:30;;;;;;;0.50;0.50;;;;;;;;;;4949113;28;20034;-85
2024/01/19 06:42:57;;;;;;;0.50;0.50;;;;;;;;;;4951205;28;20042;-85
2024/01/19 06:45:23;;;;;;;0.55;0.55;;;;;;;;;;4950195;28;20050;-84
2024/01/19 06:47:49;;;;;;;0.60;0.60;;;;;;;;;;4954732;28;20469;-85
2024/01/19 06:50:15;;;;;;;0.50;0.50;;;;;;;;;;4969176;28;20069;-85
2024/01/19 06:52:41;;;;;;;0.50;0.50;;;;;;;;;;4947699;28;20122;-85
2024/01/19 06:55:07;;;;;;;0.50;0.50;;;;;;;;;;4961966;28;20102;-85
2024/01/19 06:57:33;;;;;;;0.50;0.50;;;;;;;;;;4944321;28;20035;-85
2024/01/19 06:59:59;;;;;;;0.40;0.40;;;;;;;;;;4945254;28;20098;-85
2024/01/19 07:02:25;;;;;;;0.40;0.40;;;;;;;;;;4955819;28;20043;-85
2024/01/19 07:04:50;;;;;;;0.60;0.60;;;;;;;;;;4958189;28;20034;-85
2024/01/19 07:07:16;;;;;;;0.50;0.50;;;;;;;;;;4956247;28;20505;-85
2024/01/19 07:09:42;;;;;;;0.50;0.50;;;;;;;;;;4950467;28;20082;-85
2024/01/19 07:12:08;;;;;;;0.50;0.50;;;;;;;;;;4958559;28;20570;-85
2024/01/19 07:14:34;;;;;;;0.50;0.50;;;;;;;;;;4954178;28;20421;-85
2024/01/19 07:17:00;;;;;;;0.60;0.60;;;;;;;;;;4949154;28;20085;-85
2024/01/19 07:19:27;;;;;;;0.50;0.50;;;;;;;;;;4960098;28;20058;-85
2024/01/19 07:21:53;;;;;;;0.50;0.50;;;;;;;;;;4952686;28;20919;-85
2024/01/19 07:24:21;;;;;;;0.50;0.50;;;;;;;;;;4948676;28;20042;-85
2024/01/19 07:26:47;;;;;;;0.50;0.50;;;;;;;;;;4953933;28;20042;-85
2024/01/19 07:29:13;;;;;;;0.50;0.50;;;;;;;;;;4954739;28;20047;-85
2024/01/19 07:31:39;;;;;;;0.50;0.50;;;;;;;;;;4953050;28;20043;-85
2024/01/19 07:34:05;;;;;;;0.50;0.50;;;;;;;;;;4953940;28;20046;-84
2024/01/19 07:36:31;;;;;;;0.50;0.50;;;;;;;;;;4972405;28;20038;-85
2024/01/19 07:38:57;;;;;;;0.50;0.50;;;;;;;;;;4955113;28;20478;-84
2024/01/19 07:41:23;;;;;;;0.60;0.60;;;;;;;;;;4955500;28;20129;-85
2024/01/19 07:43:49;;;;;;;0.57;0.57;;;;;;;;;;4953957;28;20117;-85
2024/01/19 07:46:15;;;;;;;0.60;0.60;;;;;;;;;;4954396;28;20504;-85
2024/01/19 07:48:42;;;;;;;0.60;0.60;;;;;;;;;;4954402;28;20059;-85
2024/01/19 07:51:08;;;;;;;0.50;0.50;;;;;;;;;;4941183;28;21371;-85
2024/01/19 07:53:34;;;;;;;0.50;0.50;;;;;;;;;;4951212;28;20047;-85
2024/01/19 07:56:00;;;;;;;0.50;0.50;;;;;;;;;;4950819;28;20053;-85
2024/01/19 07:58:27;;;;;;;0.50;0.50;;;;;;;;;;4954215;28;20097;-85
2024/01/19 08:00:53;;;;;;;0.50;0.50;;;;;;;;;;4951341;28;20053;-85
2024/01/19 08:03:19;;;;;;;0.50;0.50;;;;;;;;;;4950279;28;20051;-85
2024/01/19 08:05:45;;;;;;;0.55;0.55;;;;;;;;;;4956684;28;20053;-85
2024/01/19 08:08:12;;;;;;;0.60;0.60;;;;;;;;;;4968910;28;20043;-90
2024/01/19 08:10:38;;;;;;;0.60;0.60;;;;;;;;;;4955579;28;20130;-90
2024/01/19 08:13:04;;;;;;;0.50;0.50;;;;;;;;;;4949987;28;20047;-90
2024/01/19 08:15:30;;;;;;;0.50;0.50;;;;;;;;;;4953745;28;20042;-91
2024/01/19 08:17:56;;;;;;;0.60;0.60;;;;;;;;;;4956186;28;20042;-89
2024/01/19 08:20:22;;;;;;;0.50;0.50;;;;;;;;;;4955724;28;20093;-91
2024/01/19 08:22:48;;;;;;;0.50;0.50;;;;;;;;;;4954317;28;20046;-88
2024/01/19 08:25:15;;;;;;;0.52;0.52;;;;;;;;;;4955189;28;20066;-88
2024/01/19 08:27:41;;;;;;;0.50;0.50;;;;;;;;;;4954667;28;20038;-88
2024/01/19 08:30:07;;;;;;;0.50;0.50;;;;;;;;;;4946797;28;20122;-86
2024/01/19 08:32:34;;;;;;;0.50;0.50;;;;;;;;;;4946869;28;20065;-87
2024/01/19 08:35:08;;;;;;;0.50;0.50;;;;;;;;;;4955691;28;20058;-87
2024/01/19 08:37:40;;;;;;;0.45;0.45;;;;;;;;;;4953649;28;20082;-87
2024/01/19 08:40:06;;;;;;;0.50;0.50;;;;;;;;;;4974011;28;20117;-86
2024/01/19 08:42:32;;;;;;;0.57;0.57;;;;;;;;;;4965108;28;20853;-88
2024/01/19 08:44:58;;;;;;;0.50;0.50;;;;;;;;;;4966773;28;20055;-89
2024/01/19 08:47:25;;;;;;;0.60;0.60;;;;;;;;;;4941123;28;20141;-91
2024/01/19 08:49:53;;;;;;;0.52;0.52;;;;;;;;;;4946071;28;20413;-89
2024/01/19 08:52:19;;;;;;;0.60;0.60;;;;;;;;;;4962319;28;20051;-90
2024/01/19 08:54:45;;;;;;;0.60;0.60;;;;;;;;;;4953707;28;20035;-90
2024/01/19 08:57:11;;;;;;;0.50;0.50;;;;;;;;;;4944759;28;20054;-88
2024/01/19 08:59:37;;;;;;;0.50;0.50;;;;;;;;;;4939723;29;20047;-89
2024/01/19 09:02:03;;;;;;;0.50;0.50;;;;;;;;;;4952746;28;20047;-89
2024/01/19 09:04:29;;;;;;;0.50;0.50;;;;;;;;;;4954990;28;20142;-88
2024/01/19 09:06:57;;;;;;;0.50;0.50;;;;;;;;;;4963031;28;20070;-90
2024/01/19 09:09:23;;;;;;;0.50;0.50;;;;;;;;;;4967818;28;20045;-91
2024/01/19 09:11:49;;;;;;;0.50;0.50;;;;;;;;;;4943725;28;20057;-91
2024/01/19 09:14:16;;;;;;;0.50;0.50;;;;;;;;;;4948895;28;20517;-90
2024/01/19 09:16:45;;;;;;;0.50;0.50;;;;;;;;;;4954907;28;20074;-90
2024/01/19 09:19:12;;;;;;;0.50;0.50;;;;;;;;;;4959675;28;20501;-90
2024/01/19 09:21:44;;;;;;;0.50;0.50;;;;;;;;;;4948690;28;20133;-90
2024/01/19 09:24:10;;;;;;;0.50;0.50;;;;;;;;;;4950139;28;20129;-90
2024/01/19 09:26:36;;;;;;;0.50;0.50;;;;;;;;;;4942890;28;20043;-91
2024/01/19 09:29:02;;;;;;;0.50;0.50;;;;;;;;;;4954692;28;20481;-90
2024/01/19 09:31:28;;;;;;;0.60;0.60;;;;;;;;;;4940027;29;20039;-89
2024/01/19 09:33:54;;;;;;;0.50;0.50;;;;;;;;;;4943064;29;20047;-90
2024/01/19 09:36:20;;;;;;;0.50;0.50;;;;;;;;;;4954221;28;20034;-90
2024/01/19 09:38:46;;;;;;;0.82;0.82;;;;;;;;;;4954923;28;20181;-90
2024/01/19 09:41:27;;;;;;;0.40;0.40;;;;;;;;;;4948156;28;20050;-90
2024/01/19 09:43:58;;;;;;;0.40;0.40;;;;;;;;;;4946751;28;20116;-90
2024/01/19 09:46:27;;;;;;;0.50;0.50;;;;;;;;;;4947624;28;20039;-90
2024/01/19 09:49:08;;;;;;;0.50;0.50;;;;;;;;;;4954798;28;20054;-90
2024/01/19 09:51:47;;;;;;;0.60;0.60;;;;;;;;;;4953724;28;20138;-90
2024/01/19 09:54:19;;;;;;;0.50;0.50;;;;;;;;;;4946959;28;20042;-90
2024/01/19 09:56:45;;;;;;;0.50;0.50;;;;;;;;;;4955128;28;20101;-90
2024/01/19 09:59:11;;;;;;;0.50;0.50;;;;;;;;;;4950876;28;20042;-89
2024/01/19 10:01:39;;;;;;;0.47;0.47;;;;;;;;;;4945835;28;20051;-90
2024/01/19 10:04:10;;;;;;;0.60;0.60;;;;;;;;;;4947069;28;20053;-89
2024/01/19 10:06:36;;;;;;;0.47;0.47;;;;;;;;;;4946665;28;20042;-91
2024/01/19 10:09:03;;;;;;;0.45;0.45;;;;;;;;;;4954341;28;20074;-91
2024/01/19 10:11:30;;;;;;;0.50;0.50;;;;;;;;;;4946139;28;20054;-90
2024/01/19 10:13:56;;;;;;;0.60;0.60;;;;;;;;;;4951772;28;20102;-90
2024/01/19 10:16:22;;;;;;;0.50;0.50;;;;;;;;;;4946421;28;20035;-89
2024/01/19 10:18:49;;;;;;;0.50;0.50;;;;;;;;;;4952503;28;20041;-90
2024/01/19 10:21:26;;;;;;;0.60;0.60;;;;;;;;;;4949913;28;20121;-90
2024/01/19 10:24:07;;;;;;;0.50;0.50;;;;;;;;;;4957363;28;20066;-89
2024/01/19 10:26:33;;;;;;;0.50;0.50;;;;;;;;;;4953916;28;20046;-90
2024/01/19 10:29:08;;;;;;;0.60;0.60;;;;;;;;;;4955287;28;20042;-90
2024/01/19 10:31:34;;;;;;;0.45;0.45;;;;;;;;;;4948369;29;20043;-90
2024/01/19 10:34:00;;;;;;;0.50;0.50;;;;;;;;;;4942545;28;20070;-89
2024/01/19 10:36:27;;;;;;;0.50;0.50;;;;;;;;;;4952907;28;20039;-90
2024/01/19 10:38:53;;;;;;;0.50;0.50;;;;;;;;;;4949756;28;20126;-90
2024/01/19 10:41:26;;;;;;;0.50;0.50;;;;;;;;;;4952774;28;20126;-89
2024/01/19 10:43:52;;;;;;;0.47;0.47;;;;;;;;;;4969003;28;20066;-89
2024/01/19 10:46:23;;;;;;;0.50;0.50;;;;;;;;;;4938588;29;20173;-93
2024/01/19 10:48:50;;;;;;;0.50;0.50;;;;;;;;;;4947418;28;20046;-89
2024/01/19 10:51:20;;;;;;;0.50;0.50;;;;;;;;;;4952197;28;20065;-89
2024/01/19 10:53:48;;;;;;;0.50;0.50;;;;;;;;;;4946571;28;20040;-89
2024/01/19 10:56:21;;;;;;;0.50;0.50;;;;;;;;;;4945164;28;20118;-89
2024/01/19 10:58:47;;;;;;;0.52;0.52;;;;;;;;;;4972082;28;20121;-89
2024/01/19 11:01:17;;;;;;;1.15;1.05;;;;;;;;;;4953137;28;20047;-90
2024/01/19 11:03:44;;;;;;;0.50;0.50;;;;;;;;;;4954312;28;20051;-90
2024/01/19 11:06:10;;;;;;;0.50;0.50;;;;;;;;;;4957218;28;20050;-90
2024/01/19 11:08:37;;;;;;;0.50;0.50;;;;;;;;;;4947062;28;20035;-90
2024/01/19 11:11:04;;;;;;;0.50;0.50;;;;;;;;;;4954734;28;20043;-90
2024/01/19 11:13:33;;;;;;;0.50;0.50;;;;;;;;;;4950100;29;20417;-89
2024/01/19 11:16:01;;;;;;;0.50;0.50;;;;;;;;;;4947965;28;20039;-90
2024/01/19 11:18:28;;;;;;;0.55;0.55;;;;;;;;;;4955542;28;20043;-90
2024/01/19 11:20:54;;;;;;;0.52;0.52;;;;;;;;;;4953849;28;20054;-89
2024/01/19 11:23:20;;;;;;;0.60;0.60;;;;;;;;;;4951637;28;20301;-89
2024/01/19 11:25:49;;;;;;;0.52;0.52;;;;;;;;;;4950105;28;20141;-89
2024/01/19 11:28:19;;;;;;;0.52;0.52;;;;;;;;;;4952273;28;20042;-90
2024/01/19 11:31:04;;;;;;;0.50;0.50;;;;;;;;;;4949171;28;20486;-89
2024/01/19 11:33:33;;;;;;;0.50;0.50;;;;;;;;;;4937309;28;20122;-88
2024/01/19 11:35:59;;;;;;;0.50;0.50;;;;;;;;;;4952633;28;20042;-89
2024/01/19 11:38:41;;;;;;;0.50;0.50;;;;;;;;;;4958040;28;20042;-89
2024/01/19 11:41:07;;;;;;;0.50;0.50;;;;;;;;;;4947109;28;20039;-89
2024/01/19 11:43:40;;;;;;;0.50;0.50;;;;;;;;;;4953554;28;20045;-89
2024/01/19 11:46:10;;;;;;;0.50;0.50;;;;;;;;;;4952830;28;20473;-89
2024/01/19 11:48:44;;;;;;;0.50;0.50;;;;;;;;;;4951098;28;20046;-89
2024/01/19 11:51:33;;;;;;;0.50;0.50;;;;;;;;;;4969113;28;20043;-89
2024/01/19 11:54:03;;;;;;;0.50;0.50;;;;;;;;;;4936564;28;20055;-88
2024/01/19 11:56:30;;;;;;;0.50;0.50;;;;;;;;;;4944858;28;20039;-88
2024/01/19 11:58:57;;;;;;;0.50;0.50;;;;;;;;;;4942551;28;20047;-88
2024/01/19 12:01:24;;;;;;;0.43;0.43;;;;;;;;;;4946305;28;20438;-88
2024/01/19 12:03:54;;;;;;;0.52;0.52;;;;;;;;;;4950461;28;20539;-89
2024/01/19 12:06:20;;;;;;;0.60;0.60;;;;;;;;;;4949292;28;20186;-88
2024/01/19 12:08:59;;;;;;;0.60;0.60;;;;;;;;;;4944123;29;20047;-89
2024/01/19 12:11:25;;;;;;;0.50;0.50;;;;;;;;;;4949343;28;20047;-89
2024/01/19 12:13:51;;;;;;;0.60;0.60;;;;;;;;;;4947262;28;20097;-89
2024/01/19 12:16:21;;;;;;;0.50;0.50;;;;;;;;;;4953902;28;20043;-89
2024/01/19 12:18:47;;;;;;;0.50;0.50;;;;;;;;;;4967599;28;20039;-89
2024/01/19 12:21:13;;;;;;;0.50;0.50;;;;;;;;;;4948180;28;20054;-89
2024/01/19 12:23:41;;;;;;;0.50;0.50;;;;;;;;;;4958906;28;20046;-88
2024/01/19 12:26:07;;;;;;;0.50;0.50;;;;;;;;;;4953220;28;20050;-89
2024/01/19 12:28:33;;;;;;;0.50;0.50;;;;;;;;;;4960124;28;20049;-88
2024/01/19 12:30:59;;;;;;;2.95;1.95;;;;;;;;;;4950570;28;20103;-89
2024/01/19 12:33:28;;;;;;;0.50;0.50;;;;;;;;;;4954038;28;20039;-88
2024/01/19 12:36:05;;;;;;;0.50;0.50;;;;;;;;;;4950826;28;20038;-88
2024/01/19 12:38:32;;;;;;;0.40;0.40;;;;;;;;;;4951606;28;20039;-89
2024/01/19 12:40:58;;;;;;;0.60;0.60;;;;;;;;;;4948394;28;20623;-84
2024/01/19 12:43:29;;;;;;;0.50;0.50;;;;;;;;;;4948907;28;20042;-83
2024/01/19 12:46:05;;;;;;;0.50;0.50;;;;;;;;;;4951550;28;20046;-83
2024/01/19 12:48:32;;;;;;;0.50;0.50;;;;;;;;;;4952569;28;20038;-83
2024/01/19 12:50:58;;;;;;;0.50;0.50;;;;;;;;;;4947074;28;20390;-84
2024/01/19 12:53:24;;;;;;;0.50;0.50;;;;;;;;;;4952209;28;20042;-83
2024/01/19 12:55:51;;;;;;;0.50;0.50;;;;;;;;;;4964230;28;20031;-83
2024/01/19 12:58:22;;;;;;;0.50;0.50;;;;;;;;;;4941288;28;20042;-84
2024/01/19 13:00:48;;;;;;;0.50;0.50;;;;;;;;;;4960557;28;20053;-83
2024/01/19 13:03:17;;;;;;;0.60;0.60;;;;;;;;;;4960353;28;20047;-83
2024/01/19 13:05:44;;;;;;;0.50;0.50;;;;;;;;;;4943385;28;20053;-83
2024/01/19 13:08:12;;;;;;;0.55;0.55;;;;;;;;;;4944841;28;20470;-83
2024/01/19 13:10:38;;;;;;;0.50;0.50;;;;;;;;;;4942925;28;20166;-83
2024/01/19 13:13:08;;;;;;;0.50;0.50;;;;;;;;;;4944186;28;20051;-83
2024/01/19 13:15:34;;;;;;;0.50;0.50;;;;;;;;;;4942718;28;20035;-83
2024/01/19 13:18:08;;;;;;;0.50;0.50;;;;;;;;;;4964374;28;20043;-83
2024/01/19 13:20:34;;;;;;;0.50;0.50;;;;;;;;;;4942252;28;20046;-83
2024/01/19 13:23:00;;;;;;;0.50;0.50;;;;;;;;;;4944200;28;20043;-83
2024/01/19 13:25:26;;;;;;;0.50;0.50;;;;;;;;;;4941955;28;20043;-84
2024/01/19 13:27:52;;;;;;;0.50;0.50;;;;;;;;;;4944618;28;20075;-83
2024/01/19 13:30:18;;;;;;;0.47;0.47;;;;;;;;;;4941202;28;20512;-83
2024/01/19 13:32:44;;;;;;;0.50;0.50;;;;;;;;;;4944119;28;20047;-83
2024/01/19 13:35:11;;;;;;;0.55;0.55;;;;;;;;;;4943659;28;20046;-84
2024/01/19 13:37:37;;;;;;;0.50;0.50;;;;;;;;;;4941914;28;20063;-82
2024/01/19 13:40:04;;;;;;;0.45;0.45;;;;;;;;;;4940398;28;20045;-83
2024/01/19 13:42:32;;;;;;;0.40;0.40;;;;;;;;;;4961186;28;20125;-83
2024/01/19 13:44:58;;;;;;;0.50;0.50;;;;;;;;;;4942727;28;20134;-83
2024/01/19 13:47:24;;;;;;;0.50;0.50;;;;;;;;;;4944047;28;20042;-84
2024/01/19 13:49:50;;;;;;;0.50;0.50;;;;;;;;;;4949041;28;20035;-83
2024/01/19 13:52:16;;;;;;;0.43;0.43;;;;;;;;;;4966838;28;20074;-83
2024/01/19 13:54:42;;;;;;;0.50;0.50;;;;;;;;;;4954951;28;20115;-83
2024/01/19 13:57:08;;;;;;;0.50;0.50;;;;;;;;;;4956853;28;20495;-84
2024/01/19 13:59:34;;;;;;;0.50;0.50;;;;;;;;;;4955013;28;20065;-84
2024/01/19 14:02:00;;;;;;;0.50;0.50;;;;;;;;;;4953691;28;20043;-85
2024/01/19 14:04:27;;;;;;;0.50;0.50;;;;;;;;;;4954113;28;20453;-84
2024/01/19 14:06:53;;;;;;;0.50;0.50;;;;;;;;;;4948139;28;20513;-84
2024/01/19 14:09:19;;;;;;;0.50;0.50;;;;;;;;;;4946632;28;20042;-84
2024/01/19 14:11:47;;;;;;;0.50;0.50;;;;;;;;;;4948578;28;19926;-84
2024/01/19 14:14:13;;;;;;;0.57;0.57;;;;;;;;;;4943155;28;20031;-83
2024/01/19 14:16:39;;;;;;;0.50;0.50;;;;;;;;;;4944358;29;20050;-84
2024/01/19 14:19:05;;;;;;;0.60;0.60;;;;;;;;;;4966199;28;20113;-84
2024/01/19 14:21:31;;;;;;;0.50;0.50;;;;;;;;;;4949159;28;20071;-84
2024/01/19 14:23:57;;;;;;;0.60;0.60;;;;;;;;;;4945652;28;20129;-84
2024/01/19 14:26:23;;;;;;;0.50;0.50;;;;;;;;;;4946143;28;20049;-85
2024/01/19 14:28:49;;;;;;;0.50;0.50;;;;;;;;;;4944908;28;20395;-84
2024/01/19 14:31:15;;;;;;;0.50;0.50;;;;;;;;;;4950056;28;20039;-84
2024/01/19 14:33:43;;;;;;;0.50;0.50;;;;;;;;;;4963674;28;20121;-83
2024/01/19 14:36:09;;;;;;;0.40;0.40;;;;;;;;;;4963381;28;20428;-83
2024/01/19 14:38:35;;;;;;;0.50;0.50;;;;;;;;;;4944299;28;20449;-83
2024/01/19 14:41:02;;;;;;;0.50;0.50;;;;;;;;;;4946464;28;20039;-83